sensor_id;sensor_type;location;lat;lon;timestamp;temperature;humidity
678;DHT22;321;48.814;9.132;2023-05-10T00:00:07;17.10;99.90
678;DHT22;321;48.814;9.132;2023-05-10T00:02:34;17.10;99.90
678;DHT22;321;48.814;9.132;2023-05-10T00:05:00;16.90;99.90
678;DHT22;321;48.814;9.132;2023-05-10T00:07:26;16.80;99.90
678;DHT22;321;48.814;9.132;2023-05-10T00:09:52;16.60;99.90
678;DHT22;321;48.814;9.132;2023-05-10T00:12:19;16.50;99.90
678;DHT22;321;48.814;9.132;2023-05-10T00:14:45;16.40;99.90
678;DHT22;321;48.814;9.132;2023-05-10T00:17:10;16.20;99.90
678;DHT22;321;48.814;9.132;2023-05-10T00:19:36;16.20;99.90
678;DHT22;321;48.814;9.132;2023-05-10T00:22:01;16.20;99.90
678;DHT22;321;48.814;9.132;2023-05-10T00:24:27;16.00;99.90
678;DHT22;321;48.814;9.132;2023-05-10T00:26:52;15.90;99.90
678;DHT22;321;48.814;9.132;2023-05-10T00:29:18;15.90;99.90
678;DHT22;321;48.814;9.132;2023-05-10T00:31:44;15.90;99.90
678;DHT22;321;48.814;9.132;2023-05-10T00:34:10;16.00;99.90
678;DHT22;321;48.814;9.132;2023-05-10T00:36:36;15.90;99.90
678;DHT22;321;48.814;9.132;2023-05-10T00:39:02;15.90;99.90
678;DHT22;321;48.814;9.132;2023-05-10T00:41:29;15.70;99.90
678;DHT22;321;48.814;9.132;2023-05-10T00:43:54;15.60;99.90
678;DHT22;321;48.814;9.132;2023-05-10T00:46:20;15.60;99.90
678;DHT22;321;48.814;9.132;2023-05-10T00:48:46;15.60;99.90
678;DHT22;321;48.814;9.132;2023-05-10T00:51:13;15.60;99.90
678;DHT22;321;48.814;9.132;2023-05-10T00:53:39;15.70;99.90
678;DHT22;321;48.814;9.132;2023-05-10T00:56:05;15.70;99.90
678;DHT22;321;48.814;9.132;2023-05-10T00:58:31;15.70;99.90
678;DHT22;321;48.814;9.132;2023-05-10T01:00:57;15.70;99.90
678;DHT22;321;48.814;9.132;2023-05-10T01:03:24;15.60;99.90
678;DHT22;321;48.814;9.132;2023-05-10T01:05:49;15.60;99.90
678;DHT22;321;48.814;9.132;2023-05-10T01:08:15;15.50;99.90
678;DHT22;321;48.814;9.132;2023-05-10T01:10:42;15.60;99.90
678;DHT22;321;48.814;9.132;2023-05-10T01:13:08;15.60;99.90
678;DHT22;321;48.814;9.132;2023-05-10T01:15:34;15.50;99.90
678;DHT22;321;48.814;9.132;2023-05-10T01:24:38;15.40;99.90
678;DHT22;321;48.814;9.132;2023-05-10T01:27:17;15.40;99.90
678;DHT22;321;48.814;9.132;2023-05-10T01:30:08;15.30;99.90
678;DHT22;321;48.814;9.132;2023-05-10T01:35:22;15.40;99.90
678;DHT22;321;48.814;9.132;2023-05-10T01:40:40;15.40;99.90
678;DHT22;321;48.814;9.132;2023-05-10T01:43:13;15.30;99.90
678;DHT22;321;48.814;9.132;2023-05-10T01:45:47;15.40;99.90
678;DHT22;321;48.814;9.132;2023-05-10T01:48:15;15.40;99.90
678;DHT22;321;48.814;9.132;2023-05-10T01:50:43;15.30;99.90
678;DHT22;321;48.814;9.132;2023-05-10T01:53:12;15.20;99.90
678;DHT22;321;48.814;9.132;2023-05-10T01:55:43;15.30;99.90
678;DHT22;321;48.814;9.132;2023-05-10T01:58:17;15.40;99.90
678;DHT22;321;48.814;9.132;2023-05-10T02:00:45;15.50;99.90
678;DHT22;321;48.814;9.132;2023-05-10T02:03:12;15.60;99.90
678;DHT22;321;48.814;9.132;2023-05-10T02:05:38;15.60;99.90
678;DHT22;321;48.814;9.132;2023-05-10T02:08:08;15.50;99.90
678;DHT22;321;48.814;9.132;2023-05-10T02:10:35;15.50;99.90
678;DHT22;321;48.814;9.132;2023-05-10T02:13:02;15.50;99.90
678;DHT22;321;48.814;9.132;2023-05-10T02:15:28;15.60;99.90
678;DHT22;321;48.814;9.132;2023-05-10T02:17:55;15.50;99.90
678;DHT22;321;48.814;9.132;2023-05-10T02:20:22;15.50;99.90
678;DHT22;321;48.814;9.132;2023-05-10T02:22:51;15.50;99.90
678;DHT22;321;48.814;9.132;2023-05-10T02:25:19;15.50;99.90
678;DHT22;321;48.814;9.132;2023-05-10T02:27:46;15.50;99.90
678;DHT22;321;48.814;9.132;2023-05-10T02:30:13;15.50;99.90
678;DHT22;321;48.814;9.132;2023-05-10T02:32:39;15.50;99.90
678;DHT22;321;48.814;9.132;2023-05-10T02:35:06;15.50;99.90
678;DHT22;321;48.814;9.132;2023-05-10T02:37:33;15.50;99.90
678;DHT22;321;48.814;9.132;2023-05-10T02:39:59;15.50;99.90
678;DHT22;321;48.814;9.132;2023-05-10T02:42:27;15.50;99.90
678;DHT22;321;48.814;9.132;2023-05-10T02:45:01;15.50;99.90
678;DHT22;321;48.814;9.132;2023-05-10T02:47:28;15.60;99.90
678;DHT22;321;48.814;9.132;2023-05-10T02:49:54;15.50;99.90
678;DHT22;321;48.814;9.132;2023-05-10T02:52:23;15.50;99.90
678;DHT22;321;48.814;9.132;2023-05-10T02:54:54;15.60;99.90
678;DHT22;321;48.814;9.132;2023-05-10T02:57:28;15.70;99.90
678;DHT22;321;48.814;9.132;2023-05-10T02:59:54;15.70;99.90
678;DHT22;321;48.814;9.132;2023-05-10T03:02:21;15.60;99.90
678;DHT22;321;48.814;9.132;2023-05-10T03:04:46;15.50;99.90
678;DHT22;321;48.814;9.132;2023-05-10T03:07:12;15.50;99.90
678;DHT22;321;48.814;9.132;2023-05-10T03:09:38;15.60;99.90
678;DHT22;321;48.814;9.132;2023-05-10T03:12:10;15.60;99.90
678;DHT22;321;48.814;9.132;2023-05-10T03:20:11;15.50;99.90
678;DHT22;321;48.814;9.132;2023-05-10T03:22:41;15.60;99.90
678;DHT22;321;48.814;9.132;2023-05-10T03:25:11;15.50;99.90
678;DHT22;321;48.814;9.132;2023-05-10T03:27:40;15.50;99.90
678;DHT22;321;48.814;9.132;2023-05-10T03:30:08;15.60;99.90
678;DHT22;321;48.814;9.132;2023-05-10T03:32:35;15.60;99.90
678;DHT22;321;48.814;9.132;2023-05-10T03:35:07;15.60;99.90
678;DHT22;321;48.814;9.132;2023-05-10T03:37:32;15.70;99.90
678;DHT22;321;48.814;9.132;2023-05-10T03:39:58;15.70;99.90
678;DHT22;321;48.814;9.132;2023-05-10T03:42:23;15.80;99.90
678;DHT22;321;48.814;9.132;2023-05-10T03:44:49;15.80;99.90
678;DHT22;321;48.814;9.132;2023-05-10T03:47:15;15.80;99.90
678;DHT22;321;48.814;9.132;2023-05-10T03:49:40;15.80;99.90
678;DHT22;321;48.814;9.132;2023-05-10T03:52:06;15.80;99.90
678;DHT22;321;48.814;9.132;2023-05-10T03:54:32;15.80;99.90
678;DHT22;321;48.814;9.132;2023-05-10T03:56:57;15.80;99.90
678;DHT22;321;48.814;9.132;2023-05-10T03:59:23;15.70;99.90
678;DHT22;321;48.814;9.132;2023-05-10T04:01:48;15.70;99.90
678;DHT22;321;48.814;9.132;2023-05-10T04:04:14;15.70;99.90
678;DHT22;321;48.814;9.132;2023-05-10T04:06:39;15.70;99.90
678;DHT22;321;48.814;9.132;2023-05-10T04:09:05;15.70;99.90
678;DHT22;321;48.814;9.132;2023-05-10T04:11:30;15.70;99.90
678;DHT22;321;48.814;9.132;2023-05-10T04:13:56;15.70;99.90
678;DHT22;321;48.814;9.132;2023-05-10T04:16:21;15.70;99.90
678;DHT22;321;48.814;9.132;2023-05-10T04:18:47;15.70;99.90
678;DHT22;321;48.814;9.132;2023-05-10T04:21:14;15.70;99.90
678;DHT22;321;48.814;9.132;2023-05-10T04:23:39;15.70;99.90
678;DHT22;321;48.814;9.132;2023-05-10T04:26:05;15.80;99.90
678;DHT22;321;48.814;9.132;2023-05-10T04:28:31;15.80;99.90
678;DHT22;321;48.814;9.132;2023-05-10T04:31:03;15.80;99.90
678;DHT22;321;48.814;9.132;2023-05-10T04:33:29;15.70;99.90
678;DHT22;321;48.814;9.132;2023-05-10T04:35:55;15.80;99.90
678;DHT22;321;48.814;9.132;2023-05-10T04:38:21;15.80;99.90
678;DHT22;321;48.814;9.132;2023-05-10T04:40:46;15.80;99.90
678;DHT22;321;48.814;9.132;2023-05-10T04:43:12;15.80;99.90
678;DHT22;321;48.814;9.132;2023-05-10T04:45:37;15.80;99.90
678;DHT22;321;48.814;9.132;2023-05-10T04:48:03;15.90;99.90
678;DHT22;321;48.814;9.132;2023-05-10T04:50:29;15.90;99.90
678;DHT22;321;48.814;9.132;2023-05-10T04:52:54;16.00;99.90
678;DHT22;321;48.814;9.132;2023-05-10T04:55:20;16.00;99.90
678;DHT22;321;48.814;9.132;2023-05-10T04:57:45;16.00;99.90
678;DHT22;321;48.814;9.132;2023-05-10T05:00:12;16.10;99.90
678;DHT22;321;48.814;9.132;2023-05-10T05:02:38;16.10;99.90
678;DHT22;321;48.814;9.132;2023-05-10T05:05:04;16.10;99.90
678;DHT22;321;48.814;9.132;2023-05-10T05:07:30;16.10;99.90
678;DHT22;321;48.814;9.132;2023-05-10T05:09:56;16.10;99.90
678;DHT22;321;48.814;9.132;2023-05-10T05:12:21;16.20;99.90
678;DHT22;321;48.814;9.132;2023-05-10T05:14:47;16.20;99.90
678;DHT22;321;48.814;9.132;2023-05-10T05:17:13;16.40;99.90
678;DHT22;321;48.814;9.132;2023-05-10T05:19:38;16.50;99.90
678;DHT22;321;48.814;9.132;2023-05-10T05:22:06;16.60;99.90
678;DHT22;321;48.814;9.132;2023-05-10T05:24:36;16.70;99.90
678;DHT22;321;48.814;9.132;2023-05-10T05:27:03;16.90;99.90
678;DHT22;321;48.814;9.132;2023-05-10T05:29:29;16.90;99.90
678;DHT22;321;48.814;9.132;2023-05-10T05:31:55;17.00;99.90
678;DHT22;321;48.814;9.132;2023-05-10T05:34:20;17.00;99.90
678;DHT22;321;48.814;9.132;2023-05-10T05:36:47;16.90;99.90
678;DHT22;321;48.814;9.132;2023-05-10T05:39:12;17.10;99.90
678;DHT22;321;48.814;9.132;2023-05-10T05:41:38;17.10;99.90
678;DHT22;321;48.814;9.132;2023-05-10T05:44:03;17.20;99.90
678;DHT22;321;48.814;9.132;2023-05-10T05:46:29;17.30;99.90
678;DHT22;321;48.814;9.132;2023-05-10T05:48:54;17.40;99.90
678;DHT22;321;48.814;9.132;2023-05-10T05:51:20;17.40;99.90
678;DHT22;321;48.814;9.132;2023-05-10T05:53:46;17.50;99.90
678;DHT22;321;48.814;9.132;2023-05-10T05:56:11;17.60;99.90
678;DHT22;321;48.814;9.132;2023-05-10T05:58:37;17.70;99.90
678;DHT22;321;48.814;9.132;2023-05-10T06:01:02;17.70;99.90
678;DHT22;321;48.814;9.132;2023-05-10T06:03:28;17.70;99.90
678;DHT22;321;48.814;9.132;2023-05-10T06:05:54;17.70;99.90
678;DHT22;321;48.814;9.132;2023-05-10T06:08:19;17.60;99.90
678;DHT22;321;48.814;9.132;2023-05-10T06:10:45;17.60;99.90
678;DHT22;321;48.814;9.132;2023-05-10T06:13:11;17.70;99.90
678;DHT22;321;48.814;9.132;2023-05-10T06:15:37;17.70;99.90
678;DHT22;321;48.814;9.132;2023-05-10T06:18:02;17.60;99.90
678;DHT22;321;48.814;9.132;2023-05-10T06:20:28;17.70;99.90
678;DHT22;321;48.814;9.132;2023-05-10T06:22:54;17.70;99.90
678;DHT22;321;48.814;9.132;2023-05-10T06:25:20;17.70;99.90
678;DHT22;321;48.814;9.132;2023-05-10T06:27:45;17.70;99.90
678;DHT22;321;48.814;9.132;2023-05-10T06:30:11;17.70;99.90
678;DHT22;321;48.814;9.132;2023-05-10T06:32:38;17.60;99.90
678;DHT22;321;48.814;9.132;2023-05-10T06:35:04;17.60;99.90
678;DHT22;321;48.814;9.132;2023-05-10T06:37:30;17.60;99.90
678;DHT22;321;48.814;9.132;2023-05-10T06:39:55;17.60;99.90
678;DHT22;321;48.814;9.132;2023-05-10T06:42:21;17.70;99.90
678;DHT22;321;48.814;9.132;2023-05-10T06:44:46;17.70;99.90
678;DHT22;321;48.814;9.132;2023-05-10T06:47:12;17.70;99.90
678;DHT22;321;48.814;9.132;2023-05-10T06:49:37;17.70;99.90
678;DHT22;321;48.814;9.132;2023-05-10T06:52:03;17.70;99.90
678;DHT22;321;48.814;9.132;2023-05-10T06:54:29;17.70;99.90
678;DHT22;321;48.814;9.132;2023-05-10T06:56:55;17.60;99.90
678;DHT22;321;48.814;9.132;2023-05-10T06:59:20;17.50;99.90
678;DHT22;321;48.814;9.132;2023-05-10T07:01:47;17.60;99.90
678;DHT22;321;48.814;9.132;2023-05-10T07:04:12;17.70;99.90
678;DHT22;321;48.814;9.132;2023-05-10T07:06:38;17.70;99.90
678;DHT22;321;48.814;9.132;2023-05-10T07:09:04;17.90;99.90
678;DHT22;321;48.814;9.132;2023-05-10T07:11:29;18.00;99.90
678;DHT22;321;48.814;9.132;2023-05-10T07:13:55;18.20;99.90
678;DHT22;321;48.814;9.132;2023-05-10T07:16:20;18.40;99.90
678;DHT22;321;48.814;9.132;2023-05-10T07:18:46;18.40;99.90
678;DHT22;321;48.814;9.132;2023-05-10T07:21:12;18.60;99.90
678;DHT22;321;48.814;9.132;2023-05-10T07:23:38;18.40;99.90
678;DHT22;321;48.814;9.132;2023-05-10T07:26:03;18.60;99.90
678;DHT22;321;48.814;9.132;2023-05-10T07:28:29;18.90;99.90
678;DHT22;321;48.814;9.132;2023-05-10T07:30:54;19.20;99.90
678;DHT22;321;48.814;9.132;2023-05-10T07:33:20;19.40;99.90
678;DHT22;321;48.814;9.132;2023-05-10T07:35:46;19.70;99.90
678;DHT22;321;48.814;9.132;2023-05-10T07:38:11;19.90;99.90
678;DHT22;321;48.814;9.132;2023-05-10T07:40:38;20.10;99.90
678;DHT22;321;48.814;9.132;2023-05-10T07:43:04;20.20;99.90
678;DHT22;321;48.814;9.132;2023-05-10T07:45:29;20.30;99.90
678;DHT22;321;48.814;9.132;2023-05-10T07:47:55;20.40;99.90
678;DHT22;321;48.814;9.132;2023-05-10T07:50:20;20.60;99.90
678;DHT22;321;48.814;9.132;2023-05-10T07:52:47;20.60;99.90
678;DHT22;321;48.814;9.132;2023-05-10T07:55:13;20.60;99.90
678;DHT22;321;48.814;9.132;2023-05-10T07:57:38;20.60;99.90
678;DHT22;321;48.814;9.132;2023-05-10T08:00:05;20.60;99.90
678;DHT22;321;48.814;9.132;2023-05-10T08:02:31;20.30;99.90
678;DHT22;321;48.814;9.132;2023-05-10T08:04:56;20.10;99.90
678;DHT22;321;48.814;9.132;2023-05-10T08:07:24;20.00;99.90
678;DHT22;321;48.814;9.132;2023-05-10T08:09:49;19.80;99.90
678;DHT22;321;48.814;9.132;2023-05-10T08:12:15;19.80;99.90
678;DHT22;321;48.814;9.132;2023-05-10T08:14:41;19.70;99.90
678;DHT22;321;48.814;9.132;2023-05-10T08:17:06;19.80;99.90
678;DHT22;321;48.814;9.132;2023-05-10T08:19:32;19.70;99.90
678;DHT22;321;48.814;9.132;2023-05-10T08:21:57;19.80;99.90
678;DHT22;321;48.814;9.132;2023-05-10T08:24:23;19.70;99.90
678;DHT22;321;48.814;9.132;2023-05-10T08:26:49;19.30;99.90
678;DHT22;321;48.814;9.132;2023-05-10T08:29:14;19.20;99.90
678;DHT22;321;48.814;9.132;2023-05-10T08:31:40;19.20;99.90
678;DHT22;321;48.814;9.132;2023-05-10T08:34:06;19.30;99.90
678;DHT22;321;48.814;9.132;2023-05-10T08:36:31;19.20;99.90
678;DHT22;321;48.814;9.132;2023-05-10T08:38:57;19.10;99.90
678;DHT22;321;48.814;9.132;2023-05-10T08:41:24;19.00;99.90
678;DHT22;321;48.814;9.132;2023-05-10T08:43:52;19.00;99.90
678;DHT22;321;48.814;9.132;2023-05-10T08:46:19;18.90;99.90
678;DHT22;321;48.814;9.132;2023-05-10T08:48:45;19.30;99.90
678;DHT22;321;48.814;9.132;2023-05-10T08:51:14;19.60;99.90
678;DHT22;321;48.814;9.132;2023-05-10T08:53:40;19.90;99.90
678;DHT22;321;48.814;9.132;2023-05-10T08:56:06;20.20;99.90
678;DHT22;321;48.814;9.132;2023-05-10T08:58:32;20.30;99.90
678;DHT22;321;48.814;9.132;2023-05-10T09:00:59;20.10;99.90
678;DHT22;321;48.814;9.132;2023-05-10T09:03:25;20.10;99.90
678;DHT22;321;48.814;9.132;2023-05-10T09:05:50;20.10;99.90
678;DHT22;321;48.814;9.132;2023-05-10T09:08:16;20.10;99.90
678;DHT22;321;48.814;9.132;2023-05-10T09:10:43;20.40;99.90
678;DHT22;321;48.814;9.132;2023-05-10T09:13:10;20.60;99.90
678;DHT22;321;48.814;9.132;2023-05-10T09:15:36;20.80;99.90
678;DHT22;321;48.814;9.132;2023-05-10T09:18:01;20.80;99.90
678;DHT22;321;48.814;9.132;2023-05-10T09:20:27;21.00;99.90
678;DHT22;321;48.814;9.132;2023-05-10T09:22:53;21.20;99.90
678;DHT22;321;48.814;9.132;2023-05-10T09:25:19;21.20;99.90
678;DHT22;321;48.814;9.132;2023-05-10T09:27:46;21.30;99.90
678;DHT22;321;48.814;9.132;2023-05-10T09:30:26;21.20;99.90
678;DHT22;321;48.814;9.132;2023-05-10T09:32:53;21.10;99.90
678;DHT22;321;48.814;9.132;2023-05-10T09:35:21;21.30;99.90
678;DHT22;321;48.814;9.132;2023-05-10T09:37:49;21.20;99.90
678;DHT22;321;48.814;9.132;2023-05-10T09:40:16;20.80;99.90
678;DHT22;321;48.814;9.132;2023-05-10T09:45:29;21.30;99.90
678;DHT22;321;48.814;9.132;2023-05-10T09:47:55;21.30;99.90
678;DHT22;321;48.814;9.132;2023-05-10T09:50:21;21.30;99.90
678;DHT22;321;48.814;9.132;2023-05-10T09:52:57;21.40;99.90
678;DHT22;321;48.814;9.132;2023-05-10T09:55:40;21.30;99.90
678;DHT22;321;48.814;9.132;2023-05-10T09:58:07;21.60;99.90
678;DHT22;321;48.814;9.132;2023-05-10T10:00:41;22.00;99.90
678;DHT22;321;48.814;9.132;2023-05-10T10:03:18;22.50;99.90
678;DHT22;321;48.814;9.132;2023-05-10T10:05:46;22.80;99.90
678;DHT22;321;48.814;9.132;2023-05-10T10:08:12;22.90;99.90
678;DHT22;321;48.814;9.132;2023-05-10T10:10:41;22.60;99.90
678;DHT22;321;48.814;9.132;2023-05-10T10:13:07;22.30;99.90
678;DHT22;321;48.814;9.132;2023-05-10T10:15:34;21.90;99.90
678;DHT22;321;48.814;9.132;2023-05-10T10:18:00;21.60;99.90
678;DHT22;321;48.814;9.132;2023-05-10T10:20:26;21.70;99.90
678;DHT22;321;48.814;9.132;2023-05-10T10:22:52;21.80;99.90
678;DHT22;321;48.814;9.132;2023-05-10T10:25:19;21.80;99.90
678;DHT22;321;48.814;9.132;2023-05-10T10:30:45;22.10;99.50
678;DHT22;321;48.814;9.132;2023-05-10T10:33:33;21.90;99.90
678;DHT22;321;48.814;9.132;2023-05-10T10:36:02;22.00;99.90
678;DHT22;321;48.814;9.132;2023-05-10T10:44:35;22.30;99.70
678;DHT22;321;48.814;9.132;2023-05-10T10:52:40;22.80;99.40
678;DHT22;321;48.814;9.132;2023-05-10T10:55:18;22.80;99.50
678;DHT22;321;48.814;9.132;2023-05-10T11:02:45;22.20;96.00
678;DHT22;321;48.814;9.132;2023-05-10T11:07:55;21.90;95.80
678;DHT22;321;48.814;9.132;2023-05-10T11:10:22;21.90;96.10
678;DHT22;321;48.814;9.132;2023-05-10T11:13:02;21.60;96.60
678;DHT22;321;48.814;9.132;2023-05-10T11:15:35;21.50;97.10
678;DHT22;321;48.814;9.132;2023-05-10T11:18:23;21.30;97.30
678;DHT22;321;48.814;9.132;2023-05-10T11:20:55;20.90;96.60
678;DHT22;321;48.814;9.132;2023-05-10T11:23:21;20.60;97.70
678;DHT22;321;48.814;9.132;2023-05-10T11:25:48;20.60;98.30
678;DHT22;321;48.814;9.132;2023-05-10T11:28:16;20.80;99.90
678;DHT22;321;48.814;9.132;2023-05-10T11:30:43;20.90;98.60
678;DHT22;321;48.814;9.132;2023-05-10T11:33:17;20.90;98.00
678;DHT22;321;48.814;9.132;2023-05-10T11:35:45;21.20;99.20
678;DHT22;321;48.814;9.132;2023-05-10T11:38:12;21.60;98.80
678;DHT22;321;48.814;9.132;2023-05-10T11:40:39;22.20;98.40
678;DHT22;321;48.814;9.132;2023-05-10T11:43:05;22.30;97.90
678;DHT22;321;48.814;9.132;2023-05-10T11:45:34;22.40;97.30
678;DHT22;321;48.814;9.132;2023-05-10T11:48:01;22.60;95.60
678;DHT22;321;48.814;9.132;2023-05-10T11:50:27;22.40;95.20
678;DHT22;321;48.814;9.132;2023-05-10T11:52:54;22.30;95.60
678;DHT22;321;48.814;9.132;2023-05-10T11:55:20;22.00;95.00
678;DHT22;321;48.814;9.132;2023-05-10T11:57:46;21.60;96.00
678;DHT22;321;48.814;9.132;2023-05-10T12:00:13;21.50;96.20
678;DHT22;321;48.814;9.132;2023-05-10T12:02:39;21.20;98.00
678;DHT22;321;48.814;9.132;2023-05-10T12:05:05;21.00;97.30
678;DHT22;321;48.814;9.132;2023-05-10T12:07:31;20.90;98.80
678;DHT22;321;48.814;9.132;2023-05-10T12:12:37;20.50;98.20
678;DHT22;321;48.814;9.132;2023-05-10T12:15:04;20.50;99.90
678;DHT22;321;48.814;9.132;2023-05-10T12:17:30;20.30;98.80
678;DHT22;321;48.814;9.132;2023-05-10T12:20:12;20.30;98.50
678;DHT22;321;48.814;9.132;2023-05-10T12:22:38;20.10;98.10
678;DHT22;321;48.814;9.132;2023-05-10T12:25:04;20.30;99.90
678;DHT22;321;48.814;9.132;2023-05-10T12:27:33;20.70;98.90
678;DHT22;321;48.814;9.132;2023-05-10T12:29:59;20.70;97.80
678;DHT22;321;48.814;9.132;2023-05-10T12:32:45;20.70;97.80
678;DHT22;321;48.814;9.132;2023-05-10T12:35:11;20.70;98.90
678;DHT22;321;48.814;9.132;2023-05-10T12:37:36;20.60;94.90
678;DHT22;321;48.814;9.132;2023-05-10T12:40:08;20.60;96.80
678;DHT22;321;48.814;9.132;2023-05-10T12:42:34;20.80;96.00
678;DHT22;321;48.814;9.132;2023-05-10T12:45:01;21.00;98.00
678;DHT22;321;48.814;9.132;2023-05-10T12:47:27;21.30;98.20
678;DHT22;321;48.814;9.132;2023-05-10T12:49:53;21.30;96.80
678;DHT22;321;48.814;9.132;2023-05-10T12:52:18;21.40;96.50
678;DHT22;321;48.814;9.132;2023-05-10T12:54:44;21.50;96.90
678;DHT22;321;48.814;9.132;2023-05-10T12:57:09;21.70;96.60
678;DHT22;321;48.814;9.132;2023-05-10T12:59:35;21.70;98.70
678;DHT22;321;48.814;9.132;2023-05-10T13:02:01;21.70;96.70
678;DHT22;321;48.814;9.132;2023-05-10T13:04:26;21.70;96.00
678;DHT22;321;48.814;9.132;2023-05-10T13:06:52;21.40;96.00
678;DHT22;321;48.814;9.132;2023-05-10T13:09:17;21.20;97.70
678;DHT22;321;48.814;9.132;2023-05-10T13:11:43;21.00;98.30
678;DHT22;321;48.814;9.132;2023-05-10T13:14:08;20.60;97.10
678;DHT22;321;48.814;9.132;2023-05-10T13:16:34;20.50;97.70
678;DHT22;321;48.814;9.132;2023-05-10T13:19:00;20.30;96.10
678;DHT22;321;48.814;9.132;2023-05-10T13:21:25;20.20;98.20
678;DHT22;321;48.814;9.132;2023-05-10T13:23:51;20.10;97.60
678;DHT22;321;48.814;9.132;2023-05-10T13:26:16;20.10;98.40
678;DHT22;321;48.814;9.132;2023-05-10T13:28:43;20.10;97.70
678;DHT22;321;48.814;9.132;2023-05-10T13:31:08;20.20;99.00
678;DHT22;321;48.814;9.132;2023-05-10T13:33:34;20.10;98.40
678;DHT22;321;48.814;9.132;2023-05-10T13:35:59;20.10;97.70
678;DHT22;321;48.814;9.132;2023-05-10T13:38:25;20.20;97.60
678;DHT22;321;48.814;9.132;2023-05-10T13:40:51;20.30;98.80
678;DHT22;321;48.814;9.132;2023-05-10T13:43:18;20.10;98.10
678;DHT22;321;48.814;9.132;2023-05-10T13:45:44;20.30;99.70
678;DHT22;321;48.814;9.132;2023-05-10T13:48:09;20.50;99.40
678;DHT22;321;48.814;9.132;2023-05-10T13:50:35;20.60;99.50
678;DHT22;321;48.814;9.132;2023-05-10T13:53:00;20.60;97.90
678;DHT22;321;48.814;9.132;2023-05-10T13:55:26;20.60;98.20
678;DHT22;321;48.814;9.132;2023-05-10T13:57:52;20.60;98.30
678;DHT22;321;48.814;9.132;2023-05-10T14:00:18;20.10;97.40
678;DHT22;321;48.814;9.132;2023-05-10T14:02:43;20.10;97.50
678;DHT22;321;48.814;9.132;2023-05-10T14:05:09;20.00;98.40
678;DHT22;321;48.814;9.132;2023-05-10T14:07:34;20.10;97.40
678;DHT22;321;48.814;9.132;2023-05-10T14:10:00;20.10;97.80
678;DHT22;321;48.814;9.132;2023-05-10T14:12:26;20.00;96.40
678;DHT22;321;48.814;9.132;2023-05-10T14:14:51;20.10;97.30
678;DHT22;321;48.814;9.132;2023-05-10T14:17:17;20.10;96.20
678;DHT22;321;48.814;9.132;2023-05-10T14:19:43;20.20;96.80
678;DHT22;321;48.814;9.132;2023-05-10T14:22:08;20.10;94.30
678;DHT22;321;48.814;9.132;2023-05-10T14:24:34;19.80;95.70
678;DHT22;321;48.814;9.132;2023-05-10T14:26:59;20.00;96.70
678;DHT22;321;48.814;9.132;2023-05-10T14:29:25;20.20;97.80
678;DHT22;321;48.814;9.132;2023-05-10T14:31:51;20.40;97.10
678;DHT22;321;48.814;9.132;2023-05-10T14:34:16;20.50;97.00
678;DHT22;321;48.814;9.132;2023-05-10T14:36:42;20.60;96.30
678;DHT22;321;48.814;9.132;2023-05-10T14:39:08;20.60;95.80
678;DHT22;321;48.814;9.132;2023-05-10T14:41:35;20.40;95.00
678;DHT22;321;48.814;9.132;2023-05-10T14:44:00;20.50;96.30
678;DHT22;321;48.814;9.132;2023-05-10T14:46:28;20.50;94.50
678;DHT22;321;48.814;9.132;2023-05-10T14:48:55;20.50;96.70
678;DHT22;321;48.814;9.132;2023-05-10T14:51:20;20.60;96.40
678;DHT22;321;48.814;9.132;2023-05-10T14:53:48;20.70;95.70
678;DHT22;321;48.814;9.132;2023-05-10T14:56:14;20.80;95.50
678;DHT22;321;48.814;9.132;2023-05-10T14:58:39;20.90;97.60
678;DHT22;321;48.814;9.132;2023-05-10T15:01:05;20.70;96.20
678;DHT22;321;48.814;9.132;2023-05-10T15:03:30;20.70;96.70
678;DHT22;321;48.814;9.132;2023-05-10T15:05:56;20.80;97.60
678;DHT22;321;48.814;9.132;2023-05-10T15:08:23;20.80;94.70
678;DHT22;321;48.814;9.132;2023-05-10T15:10:50;20.80;95.00
678;DHT22;321;48.814;9.132;2023-05-10T15:13:16;20.80;97.00
678;DHT22;321;48.814;9.132;2023-05-10T15:15:41;20.80;96.10
678;DHT22;321;48.814;9.132;2023-05-10T15:18:09;20.70;96.20
678;DHT22;321;48.814;9.132;2023-05-10T15:20:34;20.50;96.00
678;DHT22;321;48.814;9.132;2023-05-10T15:23:00;20.60;97.00
678;DHT22;321;48.814;9.132;2023-05-10T15:25:26;20.50;98.90
678;DHT22;321;48.814;9.132;2023-05-10T15:27:52;20.50;97.70
678;DHT22;321;48.814;9.132;2023-05-10T15:30:18;20.40;97.10
678;DHT22;321;48.814;9.132;2023-05-10T15:32:44;20.50;96.60
678;DHT22;321;48.814;9.132;2023-05-10T15:35:10;20.50;96.30
678;DHT22;321;48.814;9.132;2023-05-10T15:37:36;20.60;98.20
678;DHT22;321;48.814;9.132;2023-05-10T15:40:02;20.40;96.60
678;DHT22;321;48.814;9.132;2023-05-10T15:42:29;20.50;96.30
678;DHT22;321;48.814;9.132;2023-05-10T15:44:56;20.50;97.80
678;DHT22;321;48.814;9.132;2023-05-10T15:47:21;20.50;95.60
678;DHT22;321;48.814;9.132;2023-05-10T15:49:47;20.60;97.50
678;DHT22;321;48.814;9.132;2023-05-10T15:52:12;20.60;98.00
678;DHT22;321;48.814;9.132;2023-05-10T15:54:38;20.50;96.90
678;DHT22;321;48.814;9.132;2023-05-10T15:57:04;20.40;97.80
678;DHT22;321;48.814;9.132;2023-05-10T15:59:29;20.50;99.30
678;DHT22;321;48.814;9.132;2023-05-10T16:01:56;20.20;97.40
678;DHT22;321;48.814;9.132;2023-05-10T16:04:22;20.20;98.30
678;DHT22;321;48.814;9.132;2023-05-10T16:06:48;20.30;98.60
678;DHT22;321;48.814;9.132;2023-05-10T16:09:13;20.30;98.40
678;DHT22;321;48.814;9.132;2023-05-10T16:11:41;20.20;97.30
678;DHT22;321;48.814;9.132;2023-05-10T16:14:06;20.20;98.90
678;DHT22;321;48.814;9.132;2023-05-10T16:16:32;19.70;95.50
678;DHT22;321;48.814;9.132;2023-05-10T16:18:57;19.70;96.80
678;DHT22;321;48.814;9.132;2023-05-10T16:21:26;19.90;98.80
678;DHT22;321;48.814;9.132;2023-05-10T16:23:52;19.90;99.00
678;DHT22;321;48.814;9.132;2023-05-10T16:26:17;19.80;97.80
678;DHT22;321;48.814;9.132;2023-05-10T16:28:43;19.60;95.70
678;DHT22;321;48.814;9.132;2023-05-10T16:31:08;19.60;98.30
678;DHT22;321;48.814;9.132;2023-05-10T16:33:34;19.60;99.90
678;DHT22;321;48.814;9.132;2023-05-10T16:35:59;19.50;98.80
678;DHT22;321;48.814;9.132;2023-05-10T16:38:25;19.50;98.50
678;DHT22;321;48.814;9.132;2023-05-10T16:40:51;19.50;98.70
678;DHT22;321;48.814;9.132;2023-05-10T16:43:16;19.40;96.40
678;DHT22;321;48.814;9.132;2023-05-10T16:45:42;19.40;99.10
678;DHT22;321;48.814;9.132;2023-05-10T16:48:07;19.40;98.60
678;DHT22;321;48.814;9.132;2023-05-10T16:50:33;19.40;98.50
678;DHT22;321;48.814;9.132;2023-05-10T16:52:59;19.30;99.60
678;DHT22;321;48.814;9.132;2023-05-10T16:55:24;19.30;98.80
678;DHT22;321;48.814;9.132;2023-05-10T16:57:50;19.20;99.90
678;DHT22;321;48.814;9.132;2023-05-10T17:00:16;19.20;98.90
678;DHT22;321;48.814;9.132;2023-05-10T17:02:41;19.10;99.90
678;DHT22;321;48.814;9.132;2023-05-10T17:05:07;19.00;98.80
678;DHT22;321;48.814;9.132;2023-05-10T17:07:33;18.80;99.90
678;DHT22;321;48.814;9.132;2023-05-10T17:09:59;18.80;99.90
678;DHT22;321;48.814;9.132;2023-05-10T17:12:24;18.70;99.90
678;DHT22;321;48.814;9.132;2023-05-10T17:14:50;18.70;99.90